createdAt,value
2017-08-29T00:00:21.329Z,17.98
2017-08-29T00:02:49.652Z,17.98
2017-08-29T00:05:18.006Z,17.96
2017-08-29T00:07:46.348Z,18.06
2017-08-29T00:10:14.690Z,17.94
2017-08-29T00:12:43.081Z,17.73
2017-08-29T00:15:11.421Z,17.68
2017-08-29T00:17:39.773Z,17.71
2017-08-29T00:20:08.106Z,17.67
2017-08-29T00:22:36.466Z,17.71
2017-08-29T00:25:04.811Z,17.84
2017-08-29T00:27:33.126Z,17.62
2017-08-29T00:30:01.467Z,17.51
2017-08-29T00:32:29.809Z,17.61
2017-08-29T00:34:58.143Z,17.65
2017-08-29T00:37:26.475Z,17.45
2017-08-29T00:39:54.815Z,17.45
2017-08-29T00:42:23.147Z,17.37
2017-08-29T00:44:52.328Z,17.49
2017-08-29T00:47:20.674Z,17.39
2017-08-29T00:49:49.004Z,17.27
2017-08-29T00:52:17.438Z,17.41
2017-08-29T00:54:45.779Z,17.50
2017-08-29T00:57:14.112Z,17.31
2017-08-29T00:59:42.465Z,17.41
2017-08-29T01:02:10.794Z,17.52
2017-08-29T01:04:39.179Z,17.48
2017-08-29T01:07:07.508Z,17.19
2017-08-29T01:09:35.858Z,17.12
2017-08-29T01:12:04.245Z,17.09
2017-08-29T01:14:32.610Z,17.01
2017-08-29T01:17:00.977Z,16.94
2017-08-29T01:19:29.338Z,17.05
2017-08-29T01:21:57.705Z,17.13
2017-08-29T01:24:26.040Z,17.10
2017-08-29T01:26:54.376Z,16.98
2017-08-29T01:29:22.735Z,17.11
2017-08-29T01:31:51.085Z,17.07
2017-08-29T01:34:19.445Z,16.91
2017-08-29T01:36:47.764Z,16.92
2017-08-29T01:39:16.204Z,16.82
2017-08-29T01:41:44.536Z,16.73
2017-08-29T01:44:12.872Z,16.86
2017-08-29T01:46:41.236Z,16.78
2017-08-29T01:49:09.568Z,16.74
2017-08-29T01:51:37.940Z,16.75
2017-08-29T01:54:06.266Z,16.75
2017-08-29T01:56:34.613Z,16.77
2017-08-29T01:59:02.949Z,16.69
2017-08-29T02:01:31.370Z,16.66
2017-08-29T02:03:59.715Z,16.63
2017-08-29T02:06:28.054Z,16.69
2017-08-29T02:08:56.396Z,16.79
2017-08-29T02:11:24.747Z,16.55
2017-08-29T02:13:53.376Z,16.46
2017-08-29T02:16:21.713Z,16.44
2017-08-29T02:18:50.045Z,16.45
2017-08-29T02:21:18.404Z,16.40
2017-08-29T02:23:46.732Z,16.51
2017-08-29T02:26:15.090Z,16.54
2017-08-29T02:28:43.431Z,16.52
2017-08-29T02:31:11.884Z,16.32
2017-08-29T02:33:40.206Z,16.46
2017-08-29T02:36:08.538Z,16.44
2017-08-29T02:38:36.901Z,16.28
2017-08-29T02:41:05.243Z,16.20
2017-08-29T02:43:33.601Z,16.26
2017-08-29T02:46:01.941Z,16.33
2017-08-29T02:48:30.304Z,16.32
2017-08-29T02:50:58.631Z,16.40
2017-08-29T02:53:26.993Z,16.27
2017-08-29T02:55:55.346Z,16.09
2017-08-29T02:58:23.677Z,15.99
2017-08-29T03:00:52.032Z,15.97
2017-08-29T03:03:20.369Z,16.09
2017-08-29T03:05:48.998Z,16.05
2017-08-29T03:08:17.340Z,16.18
2017-08-29T03:10:45.677Z,16.13
2017-08-29T03:13:14.035Z,16.07
2017-08-29T03:15:42.385Z,16.16
2017-08-29T03:18:10.749Z,16.08
2017-08-29T03:20:39.115Z,16.06
2017-08-29T03:23:07.783Z,16.11
2017-08-29T03:25:36.149Z,16.10
2017-08-29T03:28:04.488Z,16.13
2017-08-29T03:30:32.843Z,15.92
2017-08-29T03:33:01.187Z,16.04
2017-08-29T03:35:29.560Z,16.05
2017-08-29T03:37:57.882Z,15.99
2017-08-29T03:40:26.228Z,15.97
2017-08-29T03:42:54.566Z,15.97
2017-08-29T03:45:22.924Z,15.92
2017-08-29T03:47:51.273Z,15.94
2017-08-29T03:50:19.615Z,16.07
2017-08-29T03:52:47.979Z,15.88
2017-08-29T03:55:16.316Z,15.92
2017-08-29T03:57:44.686Z,15.94
2017-08-29T04:00:13.746Z,15.96
2017-08-29T04:02:42.111Z,15.77
2017-08-29T04:05:10.479Z,15.88
2017-08-29T04:07:38.818Z,15.82
2017-08-29T04:10:07.163Z,15.79
2017-08-29T04:12:35.512Z,15.81
2017-08-29T04:15:03.931Z,15.73
2017-08-29T04:17:32.661Z,15.67
2017-08-29T04:20:01.007Z,15.76
2017-08-29T04:22:29.379Z,15.70
2017-08-29T04:24:57.734Z,15.64
2017-08-29T04:27:26.110Z,15.46
2017-08-29T04:29:54.445Z,15.41
2017-08-29T04:32:22.821Z,15.59
2017-08-29T04:35:02.360Z,15.73
2017-08-29T04:37:32.638Z,15.64
2017-08-29T04:40:00.969Z,15.58
2017-08-29T04:42:29.311Z,15.65
2017-08-29T04:44:58.372Z,15.69
2017-08-29T04:47:26.721Z,15.69
2017-08-29T04:49:55.143Z,15.67
2017-08-29T04:52:23.478Z,15.63
2017-08-29T04:54:52.273Z,15.49
2017-08-29T04:57:20.604Z,15.49
2017-08-29T04:59:48.935Z,15.56
2017-08-29T05:02:17.357Z,15.43
2017-08-29T05:04:45.693Z,15.40
2017-08-29T05:07:14.825Z,15.34
2017-08-29T05:09:43.174Z,15.28
2017-08-29T05:12:11.538Z,15.38
2017-08-29T05:14:39.885Z,15.32
2017-08-29T05:17:08.239Z,15.36
2017-08-29T05:19:36.609Z,15.33
2017-08-29T05:22:04.933Z,15.27
2017-08-29T05:24:33.676Z,15.31
2017-08-29T05:27:04.840Z,15.29
2017-08-29T05:29:33.213Z,15.25
2017-08-29T05:32:01.550Z,15.25
2017-08-29T05:34:32.557Z,15.32
2017-08-29T05:37:00.912Z,15.43
2017-08-29T05:39:29.252Z,15.58
2017-08-29T05:41:57.608Z,15.60
2017-08-29T05:44:25.946Z,15.53
2017-08-29T05:46:54.310Z,15.60
2017-08-29T05:49:22.664Z,15.58
2017-08-29T05:51:51.812Z,15.57
2017-08-29T05:54:20.192Z,15.71
2017-08-29T05:56:48.532Z,15.80
2017-08-29T05:59:16.892Z,15.89
2017-08-29T06:01:45.234Z,15.94
2017-08-29T06:04:13.591Z,16.07
2017-08-29T06:06:41.925Z,16.06
2017-08-29T06:09:10.742Z,15.86
2017-08-29T06:11:39.062Z,15.85
2017-08-29T06:14:07.398Z,15.86
2017-08-29T06:16:35.838Z,15.88
2017-08-29T06:19:04.174Z,15.91
2017-08-29T06:21:32.516Z,15.94
2017-08-29T06:24:00.858Z,16.07
2017-08-29T06:26:30.009Z,16.22
2017-08-29T06:28:58.330Z,16.36
2017-08-29T06:31:26.654Z,16.45
2017-08-29T06:33:54.992Z,16.38
2017-08-29T06:36:23.310Z,16.43
2017-08-29T06:38:51.661Z,16.53
2017-08-29T06:41:19.995Z,16.65
2017-08-29T06:43:48.362Z,16.69
2017-08-29T06:46:16.690Z,16.64
2017-08-29T06:48:45.064Z,16.75
2017-08-29T06:51:13.418Z,16.80
2017-08-29T06:53:41.753Z,16.78
2017-08-29T06:56:10.100Z,16.85
2017-08-29T06:58:39.467Z,16.95
2017-08-29T07:01:07.820Z,17.10
2017-08-29T07:03:36.166Z,17.19
2017-08-29T07:06:04.937Z,17.22
2017-08-29T07:08:33.934Z,17.27
2017-08-29T07:11:02.279Z,17.42
2017-08-29T07:13:30.621Z,17.53
2017-08-29T07:15:58.959Z,17.55
2017-08-29T07:18:27.376Z,17.57
2017-08-29T07:20:55.731Z,17.64
2017-08-29T07:23:24.332Z,17.77
2017-08-29T07:25:52.668Z,17.87
2017-08-29T07:28:20.994Z,17.95
2017-08-29T07:30:50.276Z,18.07
2017-08-29T07:33:18.620Z,18.12
2017-08-29T07:35:46.981Z,18.19
2017-08-29T07:38:15.313Z,18.30
2017-08-29T07:40:43.676Z,18.41
2017-08-29T07:43:12.062Z,18.48
2017-08-29T07:45:40.419Z,18.54
2017-08-29T07:48:08.787Z,18.62
2017-08-29T07:50:37.112Z,18.71
2017-08-29T07:53:05.471Z,18.78
2017-08-29T07:55:33.846Z,18.83
2017-08-29T07:58:02.194Z,18.93
2017-08-29T08:00:30.545Z,19.04
2017-08-29T08:02:58.876Z,19.15
2017-08-29T08:05:27.345Z,19.25
2017-08-29T08:07:55.690Z,19.36
2017-08-29T08:10:24.074Z,19.44
2017-08-29T08:12:52.423Z,19.55
2017-08-29T08:15:21.629Z,19.65
2017-08-29T08:17:49.961Z,19.74
2017-08-29T08:20:18.324Z,19.83
2017-08-29T08:22:46.639Z,19.92
2017-08-29T08:25:15.046Z,20.02
2017-08-29T08:27:43.374Z,20.12
2017-08-29T08:30:12.015Z,20.22
2017-08-29T08:32:40.379Z,20.30
2017-08-29T08:35:08.722Z,20.37
2017-08-29T08:37:37.079Z,20.46
2017-08-29T08:40:05.415Z,20.55
2017-08-29T08:42:34.210Z,20.66
2017-08-29T08:45:02.541Z,20.73
2017-08-29T08:47:31.395Z,20.83
2017-08-29T08:49:59.730Z,20.91
2017-08-29T08:52:28.141Z,20.96
2017-08-29T08:54:56.494Z,21.07
2017-08-29T08:57:24.836Z,21.18
2017-08-29T08:59:53.188Z,21.28
2017-08-29T09:02:21.524Z,21.37
2017-08-29T09:04:50.323Z,21.45
2017-08-29T09:07:18.651Z,21.49
2017-08-29T09:09:46.996Z,21.59
2017-08-29T09:12:15.341Z,21.72
2017-08-29T09:14:43.669Z,21.79
2017-08-29T09:17:12.058Z,21.87
2017-08-29T09:19:40.396Z,21.97
2017-08-29T09:22:09.028Z,22.08
2017-08-29T09:24:37.370Z,22.15
2017-08-29T09:27:05.694Z,22.21
2017-08-29T09:29:34.082Z,22.37
2017-08-29T09:32:02.514Z,22.42
2017-08-29T09:34:30.879Z,22.53
2017-08-29T09:36:59.214Z,22.69
2017-08-29T09:39:27.947Z,22.79
2017-08-29T09:41:56.278Z,22.83
2017-08-29T09:44:24.618Z,23.02
2017-08-29T09:46:52.973Z,23.02
2017-08-29T09:49:21.319Z,23.10
2017-08-29T09:51:49.688Z,23.19
2017-08-29T09:54:18.043Z,23.34
2017-08-29T09:56:46.408Z,23.42
2017-08-29T09:59:14.746Z,23.45
2017-08-29T10:01:43.100Z,23.55
2017-08-29T10:04:11.435Z,23.57
2017-08-29T10:06:39.761Z,23.54
2017-08-29T10:09:08.101Z,23.56
2017-08-29T10:11:36.428Z,23.63
2017-08-29T10:14:04.806Z,23.68
2017-08-29T10:16:33.147Z,23.78
2017-08-29T10:19:01.503Z,23.81
2017-08-29T10:21:29.832Z,23.85
2017-08-29T10:23:58.188Z,23.97
2017-08-29T10:26:26.519Z,24.01
2017-08-29T10:28:54.877Z,24.07
2017-08-29T10:31:23.195Z,24.11
2017-08-29T10:33:51.529Z,24.16
2017-08-29T10:36:19.862Z,24.24
2017-08-29T10:38:48.195Z,24.31
2017-08-29T10:41:16.523Z,24.40
2017-08-29T10:43:44.864Z,24.39
2017-08-29T10:46:13.201Z,24.44
2017-08-29T10:48:41.554Z,24.61
2017-08-29T10:51:09.933Z,24.63
2017-08-29T10:53:38.263Z,24.64
2017-08-29T10:56:06.621Z,24.67
2017-08-29T10:58:34.980Z,24.69
2017-08-29T11:01:03.331Z,24.73
2017-08-29T11:03:31.659Z,24.78
2017-08-29T11:06:00.017Z,24.87
2017-08-29T11:08:28.341Z,24.87
2017-08-29T11:10:56.690Z,24.98
2017-08-29T11:13:25.055Z,25.00
2017-08-29T11:15:53.399Z,25.03
2017-08-29T11:18:21.750Z,25.03
2017-08-29T11:20:50.101Z,25.13
2017-08-29T11:23:18.457Z,25.18
2017-08-29T11:25:46.784Z,25.28
2017-08-29T11:28:15.151Z,25.30
2017-08-29T11:30:43.552Z,25.29
2017-08-29T11:33:11.885Z,25.35
2017-08-29T11:35:40.237Z,25.40
2017-08-29T11:38:08.576Z,25.44
2017-08-29T11:40:36.915Z,25.45
2017-08-29T11:43:05.267Z,25.53
2017-08-29T11:45:33.627Z,25.58
2017-08-29T11:48:01.979Z,25.65
2017-08-29T11:50:30.337Z,25.73
2017-08-29T11:52:58.672Z,25.79
2017-08-29T11:55:27.001Z,25.88
2017-08-29T11:57:55.360Z,25.93
2017-08-29T12:00:23.692Z,26.05
2017-08-29T12:02:52.051Z,26.02
2017-08-29T12:05:20.371Z,26.03
2017-08-29T12:07:48.712Z,26.10
2017-08-29T12:10:17.064Z,26.18
2017-08-29T12:12:45.409Z,26.23
2017-08-29T12:15:13.751Z,26.25
2017-08-29T12:17:42.451Z,26.23
2017-08-29T12:20:10.815Z,26.15
2017-08-29T12:22:39.177Z,26.21
2017-08-29T12:25:07.516Z,26.26
2017-08-29T12:27:35.868Z,26.32
2017-08-29T12:30:04.218Z,26.33
2017-08-29T12:32:32.558Z,26.42
2017-08-29T12:35:01.041Z,26.53
2017-08-29T12:37:29.379Z,26.60
2017-08-29T12:39:57.733Z,26.69
2017-08-29T12:42:26.070Z,26.68
2017-08-29T12:44:54.825Z,26.76
2017-08-29T12:47:23.177Z,26.76
2017-08-29T12:49:51.509Z,26.79
2017-08-29T12:52:20.264Z,26.82
2017-08-29T12:54:48.588Z,26.85
2017-08-29T12:57:16.917Z,26.87
2017-08-29T12:59:45.279Z,26.94
2017-08-29T13:02:13.637Z,27.01
2017-08-29T13:04:42.012Z,27.19
2017-08-29T13:07:10.369Z,27.21
2017-08-29T13:09:39.033Z,27.21
2017-08-29T13:12:07.368Z,27.31
2017-08-29T13:14:35.723Z,27.40
2017-08-29T13:17:04.066Z,27.38
2017-08-29T13:19:32.402Z,27.37
2017-08-29T13:22:00.768Z,27.45
2017-08-29T13:24:29.535Z,27.43
2017-08-29T13:26:58.311Z,27.50
2017-08-29T13:29:26.649Z,27.48
2017-08-29T13:31:54.984Z,27.61
2017-08-29T13:34:23.342Z,27.61
2017-08-29T13:36:51.663Z,27.73
2017-08-29T13:39:20.276Z,27.78
2017-08-29T13:41:48.635Z,27.86
2017-08-29T13:44:17.592Z,27.83
2017-08-29T13:46:45.933Z,27.92
2017-08-29T13:49:14.298Z,28.01
2017-08-29T13:51:42.659Z,28.03
2017-08-29T13:54:11.080Z,28.10
2017-08-29T13:56:39.604Z,28.23
2017-08-29T13:59:07.947Z,28.40
2017-08-29T14:01:36.297Z,28.44
2017-08-29T14:04:04.675Z,28.83
2017-08-29T14:06:33.010Z,29.22
2017-08-29T14:09:01.364Z,29.64
2017-08-29T14:11:29.711Z,29.99
2017-08-29T14:13:58.470Z,30.21
2017-08-29T14:16:26.792Z,30.44
2017-08-29T14:18:55.119Z,30.71
2017-08-29T14:21:23.521Z,30.99
2017-08-29T14:23:51.841Z,31.17
2017-08-29T14:26:20.202Z,31.38
2017-08-29T14:28:48.533Z,31.57
2017-08-29T14:31:17.665Z,31.73
2017-08-29T14:33:46.016Z,31.68
2017-08-29T14:36:14.340Z,31.99
2017-08-29T14:38:42.800Z,32.14
2017-08-29T14:41:11.138Z,32.12
2017-08-29T14:43:39.492Z,32.33
2017-08-29T14:46:07.820Z,32.52
2017-08-29T14:48:53.810Z,32.69
2017-08-29T14:51:22.132Z,32.85
2017-08-29T14:53:50.482Z,33.03
2017-08-29T14:56:18.833Z,33.21
2017-08-29T14:58:47.198Z,33.31
2017-08-29T15:01:15.630Z,33.32
2017-08-29T15:03:43.962Z,33.46
2017-08-29T15:06:12.342Z,33.43
2017-08-29T15:08:40.680Z,33.62
2017-08-29T15:11:09.042Z,33.83
2017-08-29T15:13:37.401Z,33.88
2017-08-29T15:16:06.610Z,34.24
2017-08-29T15:18:34.995Z,34.28
2017-08-29T15:21:03.405Z,34.56
2017-08-29T15:23:32.017Z,34.58
2017-08-29T15:26:00.426Z,34.80
2017-08-29T15:28:28.801Z,34.65
2017-08-29T15:30:57.168Z,34.75
2017-08-29T15:33:25.550Z,34.74
2017-08-29T15:35:53.955Z,34.82
2017-08-29T15:38:22.277Z,34.80
2017-08-29T15:40:50.661Z,34.86
2017-08-29T15:43:19.130Z,35.05
2017-08-29T15:45:47.480Z,35.01
2017-08-29T15:48:15.877Z,35.04
2017-08-29T15:50:44.300Z,34.77
2017-08-29T15:53:12.692Z,34.70
2017-08-29T15:55:41.052Z,34.62
2017-08-29T15:58:09.415Z,34.78
2017-08-29T16:00:37.771Z,34.99
2017-08-29T16:03:06.158Z,35.07
2017-08-29T16:05:34.546Z,34.69
2017-08-29T16:08:02.904Z,34.04
2017-08-29T16:10:31.303Z,33.78
2017-08-29T16:12:59.645Z,33.45
2017-08-29T16:15:27.989Z,32.93
2017-08-29T16:17:56.357Z,32.82
2017-08-29T16:20:24.687Z,32.66
2017-08-29T16:22:53.098Z,32.35
2017-08-29T16:25:21.499Z,31.68
2017-08-29T16:27:50.242Z,31.58
2017-08-29T16:30:18.566Z,31.27
2017-08-29T16:32:46.922Z,31.06
2017-08-29T16:35:16.008Z,30.74
2017-08-29T16:37:44.332Z,30.45
2017-08-29T16:40:12.683Z,30.24
2017-08-29T16:42:42.856Z,30.18
2017-08-29T16:45:11.262Z,29.74
2017-08-29T16:47:39.595Z,29.69
2017-08-29T16:50:08.243Z,29.61
2017-08-29T16:52:36.581Z,29.32
2017-08-29T16:55:04.940Z,29.21
2017-08-29T16:57:33.298Z,28.89
2017-08-29T17:00:01.631Z,28.84
2017-08-29T17:02:30.011Z,28.43
2017-08-29T17:04:58.439Z,28.17
2017-08-29T17:07:26.809Z,28.15
2017-08-29T17:09:55.187Z,27.86
2017-08-29T17:12:23.533Z,27.60
2017-08-29T17:14:51.947Z,27.51
2017-08-29T17:17:20.287Z,27.26
2017-08-29T17:19:49.430Z,27.10
2017-08-29T17:22:17.765Z,27.17
2017-08-29T17:24:46.133Z,26.96
2017-08-29T17:27:14.481Z,26.75
2017-08-29T17:29:42.880Z,26.62
2017-08-29T17:32:11.259Z,26.50
2017-08-29T17:34:39.632Z,26.44
2017-08-29T17:37:08.005Z,26.33
2017-08-29T17:39:36.428Z,26.19
2017-08-29T17:42:04.778Z,26.05
2017-08-29T17:44:33.118Z,26.05
2017-08-29T17:47:01.471Z,25.88
2017-08-29T17:49:31.094Z,25.83
2017-08-29T17:51:59.851Z,25.77
2017-08-29T17:54:28.194Z,25.86
2017-08-29T17:56:56.525Z,25.68
2017-08-29T17:59:24.923Z,25.57
2017-08-29T18:01:53.259Z,25.55
2017-08-29T18:04:22.051Z,25.49
2017-08-29T18:06:50.416Z,25.37
2017-08-29T18:09:19.148Z,25.28
2017-08-29T18:11:47.497Z,25.25
2017-08-29T18:14:15.844Z,24.95
2017-08-29T18:16:44.225Z,24.76
2017-08-29T18:19:12.565Z,24.73
2017-08-29T18:21:40.911Z,24.72
2017-08-29T18:24:11.079Z,24.73
2017-08-29T18:26:39.717Z,24.46
2017-08-29T18:29:08.070Z,24.34
2017-08-29T18:31:36.411Z,24.24
2017-08-29T18:34:04.777Z,24.07
2017-08-29T18:36:33.122Z,24.02
2017-08-29T18:39:01.484Z,23.94
2017-08-29T18:41:29.824Z,23.93
2017-08-29T18:43:58.505Z,23.89
2017-08-29T18:46:26.871Z,23.82
2017-08-29T18:48:55.280Z,23.67
2017-08-29T18:51:23.628Z,23.59
2017-08-29T18:53:51.953Z,23.55
2017-08-29T18:56:20.548Z,23.48
2017-08-29T18:58:48.906Z,23.31
2017-08-29T19:01:17.324Z,23.37
2017-08-29T19:03:45.697Z,23.37
2017-08-29T19:06:14.049Z,23.29
2017-08-29T19:08:42.455Z,23.23
2017-08-29T19:11:10.797Z,23.30
2017-08-29T19:13:39.145Z,23.22
2017-08-29T19:16:11.275Z,23.09
2017-08-29T19:18:39.933Z,23.01
2017-08-29T19:21:08.277Z,22.90
2017-08-29T19:23:36.629Z,22.73
2017-08-29T19:26:05.011Z,22.85
2017-08-29T19:28:34.272Z,22.85
2017-08-29T19:31:02.689Z,22.69
2017-08-29T19:33:31.068Z,22.69
2017-08-29T19:35:59.719Z,22.46
2017-08-29T19:38:29.236Z,22.42
2017-08-29T19:40:58.055Z,22.45
2017-08-29T19:43:26.425Z,22.46
2017-08-29T19:45:54.772Z,22.34
2017-08-29T19:48:24.413Z,22.25
2017-08-29T19:50:52.795Z,22.21
2017-08-29T19:53:21.178Z,22.06
2017-08-29T19:55:49.555Z,22.04
2017-08-29T19:58:17.972Z,22.09
2017-08-29T20:00:46.336Z,22.09
2017-08-29T20:03:14.674Z,22.10
2017-08-29T20:05:43.451Z,22.00
2017-08-29T20:08:11.790Z,22.09
2017-08-29T20:10:40.146Z,22.03
2017-08-29T20:13:08.504Z,21.88
2017-08-29T20:15:36.839Z,21.73
2017-08-29T20:18:08.370Z,21.82
2017-08-29T20:20:36.722Z,21.70
2017-08-29T20:23:05.079Z,21.59
2017-08-29T20:25:33.481Z,21.53
2017-08-29T20:28:03.028Z,21.46
2017-08-29T20:30:32.293Z,21.46
2017-08-29T20:33:01.030Z,21.54
2017-08-29T20:35:30.486Z,21.44
2017-08-29T20:37:59.084Z,21.41
2017-08-29T20:40:28.002Z,21.35
2017-08-29T20:42:56.979Z,21.23
2017-08-29T20:45:27.173Z,21.11
2017-08-29T20:47:57.490Z,21.00
2017-08-29T20:50:26.289Z,20.99
2017-08-29T20:52:54.625Z,21.06
2017-08-29T20:55:23.788Z,21.12
2017-08-29T20:57:52.167Z,21.15
2017-08-29T21:00:20.941Z,20.94
2017-08-29T21:02:49.273Z,20.89
2017-08-29T21:05:17.641Z,20.80
2017-08-29T21:07:46.358Z,20.80
2017-08-29T21:10:14.721Z,20.84
2017-08-29T21:12:43.128Z,20.74
2017-08-29T21:15:12.254Z,20.58
2017-08-29T21:17:40.586Z,20.72
2017-08-29T21:20:08.945Z,20.62
2017-08-29T21:22:37.297Z,20.63
2017-08-29T21:25:05.646Z,20.51
2017-08-29T21:27:34.013Z,20.55
2017-08-29T21:30:03.129Z,20.48
2017-08-29T21:32:31.473Z,20.53
2017-08-29T21:34:59.813Z,20.44
2017-08-29T21:37:28.165Z,20.32
2017-08-29T21:39:56.508Z,20.18
2017-08-29T21:42:25.050Z,20.17
2017-08-29T21:44:53.385Z,20.09
2017-08-29T21:47:21.769Z,20.14
2017-08-29T21:49:50.109Z,20.27
2017-08-29T21:52:20.517Z,20.13
2017-08-29T21:54:48.861Z,20.12
2017-08-29T21:57:17.210Z,20.06
2017-08-29T21:59:45.565Z,19.99
2017-08-29T22:02:13.928Z,19.95
2017-08-29T22:04:42.294Z,19.86
2017-08-29T22:07:10.652Z,20.02
2017-08-29T22:09:39.029Z,20.06
2017-08-29T22:12:07.424Z,19.95
2017-08-29T22:14:35.789Z,19.84
2017-08-29T22:17:04.174Z,19.83
2017-08-29T22:19:32.514Z,19.82
2017-08-29T22:22:00.880Z,19.74
2017-08-29T22:24:29.240Z,19.79
2017-08-29T22:26:57.571Z,19.71
2017-08-29T22:29:25.996Z,19.61
2017-08-29T22:31:54.368Z,19.58
2017-08-29T22:34:22.725Z,19.57
2017-08-29T22:36:51.061Z,19.56
2017-08-29T22:39:19.409Z,19.51
2017-08-29T22:41:47.773Z,19.63
2017-08-29T22:44:16.569Z,19.60
2017-08-29T22:46:45.709Z,19.42
2017-08-29T22:49:14.058Z,19.32
2017-08-29T22:51:42.413Z,19.36
2017-08-29T22:54:14.274Z,19.28
2017-08-29T22:56:43.491Z,19.37
2017-08-29T22:59:11.840Z,19.38
2017-08-29T23:01:40.186Z,19.27
2017-08-29T23:04:08.565Z,19.32
2017-08-29T23:06:36.881Z,19.20
2017-08-29T23:09:05.223Z,19.11
2017-08-29T23:11:33.979Z,19.10
2017-08-29T23:14:03.092Z,19.16
2017-08-29T23:16:31.436Z,19.05
2017-08-29T23:19:00.495Z,18.96
2017-08-29T23:21:28.856Z,18.93
2017-08-29T23:23:57.197Z,18.90
2017-08-29T23:26:26.038Z,18.98
2017-08-29T23:28:54.388Z,18.91
2017-08-29T23:31:22.748Z,18.92
2017-08-29T23:33:51.103Z,19.02
2017-08-29T23:36:19.432Z,19.08
2017-08-29T23:38:47.796Z,18.86
2017-08-29T23:41:16.158Z,18.82
2017-08-29T23:43:44.545Z,18.76
2017-08-29T23:46:12.869Z,18.69
2017-08-29T23:48:41.223Z,18.70
2017-08-29T23:51:09.568Z,18.63
2017-08-29T23:53:37.969Z,18.58
2017-08-29T23:56:06.321Z,18.58
2017-08-29T23:58:34.677Z,18.51
